APG326 RPVB-RPUW
Flight info
| Callsign | APG326 |
|---|---|
| Flight time | 0h 33m |
| Altitude | 25000 |
| Route | NASAG4P NASAG TR10 ROX TR15 KLO TR18 TAPER |
| Aircraft | A320/M-SDE3FGHIRWY/LB1 |
Departure
| Time | 2026-04-30 07:38 |
|---|---|
| Airport | Bacolod-Silay International Airport (RPVB) |
Arrival
| Time | 2026-04-30 08:12 |
|---|---|
| Airport | Marinduque Airport (RPUW) |
| Time | Latitude | Longitude | Altitude | Speed | Heading |
|---|---|---|---|---|---|
| 2026-04-30 07:28 | 10.77636 | 123.01554 | 84 ft | 0 kts | 301° |
| 2026-04-30 07:32 | 10.77628 | 123.01567 | 85 ft | 2 kts | 301° |
| 2026-04-30 07:32 | 10.77619 | 123.01582 | 84 ft | 2 kts | 301° |
| 2026-04-30 07:33 | 10.77610 | 123.01597 | 84 ft | 3 kts | 283° |
| 2026-04-30 07:33 | 10.77609 | 123.01615 | 84 ft | 3 kts | 248° |
| 2026-04-30 07:33 | 10.77615 | 123.01626 | 85 ft | 0 kts | 226° |
| 2026-04-30 07:34 | 10.77610 | 123.01622 | 84 ft | 3 kts | 220° |
| 2026-04-30 07:34 | 10.77593 | 123.01610 | 87 ft | 3 kts | 214° |
| 2026-04-30 07:34 | 10.77581 | 123.01602 | 81 ft | 2 kts | 213° |
| 2026-04-30 07:34 | 10.77542 | 123.01580 | 84 ft | 10 kts | 209° |
| 2026-04-30 07:35 | 10.77485 | 123.01547 | 84 ft | 9 kts | 209° |
| 2026-04-30 07:35 | 10.77433 | 123.01520 | 82 ft | 8 kts | 202° |
| 2026-04-30 07:35 | 10.77382 | 123.01515 | 84 ft | 7 kts | 163° |
| 2026-04-30 07:35 | 10.77338 | 123.01558 | 84 ft | 9 kts | 124° |
| 2026-04-30 07:36 | 10.77302 | 123.01625 | 82 ft | 14 kts | 119° |
| 2026-04-30 07:36 | 10.77218 | 123.01652 | 84 ft | 16 kts | 203° |
| 2026-04-30 07:36 | 10.77068 | 123.01566 | 84 ft | 30 kts | 209° |
| 2026-04-30 07:36 | 10.76962 | 123.01494 | 85 ft | 12 kts | 232° |
| 2026-04-30 07:37 | 10.76919 | 123.01442 | 85 ft | 8 kts | 210° |
| 2026-04-30 07:37 | 10.76903 | 123.01465 | 85 ft | 4 kts | 56° |
| 2026-04-30 07:37 | 10.76921 | 123.01477 | 85 ft | 0 kts | 29° |
| 2026-04-30 07:38 | 10.77063 | 123.01561 | 83 ft | 61 kts | 31° |
| 2026-04-30 07:38 | 10.77623 | 123.01893 | 85 ft | 122 kts | 30° |
| 2026-04-30 07:38 | 10.78481 | 123.02396 | 296 ft | 152 kts | 31° |
| 2026-04-30 07:38 | 10.79091 | 123.02759 | 685 ft | 157 kts | 32° |
| 2026-04-30 07:39 | 10.80578 | 123.03626 | 891 ft | 211 kts | 31° |
| 2026-04-30 07:39 | 10.81461 | 123.04125 | 1158 ft | 228 kts | 27° |
| 2026-04-30 07:39 | 10.83690 | 123.04299 | 1973 ft | 257 kts | 350° |
| 2026-04-30 07:39 | 10.84839 | 123.03950 | 2526 ft | 263 kts | 343° |
| 2026-04-30 07:40 | 10.86562 | 123.03250 | 3446 ft | 269 kts | 340° |
| 2026-04-30 07:40 | 10.88881 | 123.02253 | 4666 ft | 276 kts | 341° |
| 2026-04-30 07:40 | 10.90089 | 123.01757 | 5320 ft | 278 kts | 342° |
| 2026-04-30 07:40 | 10.91906 | 123.01055 | 6212 ft | 282 kts | 343° |
| 2026-04-30 07:41 | 10.94381 | 123.00170 | 7216 ft | 288 kts | 344° |
| 2026-04-30 07:41 | 10.95669 | 122.99732 | 7752 ft | 290 kts | 345° |
| 2026-04-30 07:41 | 10.97601 | 122.99087 | 8559 ft | 294 kts | 345° |
| 2026-04-30 07:41 | 10.99536 | 122.98451 | 9335 ft | 298 kts | 345° |
| 2026-04-30 07:42 | 11.01527 | 122.97798 | 10056 ft | 304 kts | 345° |
| 2026-04-30 07:42 | 11.03611 | 122.97114 | 10309 ft | 327 kts | 345° |
| 2026-04-30 07:42 | 11.05831 | 122.96382 | 10698 ft | 341 kts | 345° |
| 2026-04-30 07:42 | 11.08110 | 122.95630 | 11359 ft | 347 kts | 344° |
| 2026-04-30 07:43 | 11.10378 | 122.94731 | 12086 ft | 353 kts | 338° |
| 2026-04-30 07:43 | 11.12621 | 122.93676 | 12791 ft | 357 kts | 338° |
| 2026-04-30 07:43 | 11.14889 | 122.92604 | 13521 ft | 360 kts | 337° |
| 2026-04-30 07:43 | 11.17173 | 122.91520 | 14155 ft | 364 kts | 337° |
| 2026-04-30 07:44 | 11.19479 | 122.90427 | 14789 ft | 367 kts | 337° |
| 2026-04-30 07:44 | 11.21812 | 122.89323 | 15389 ft | 370 kts | 337° |
| 2026-04-30 07:44 | 11.24162 | 122.88211 | 15951 ft | 374 kts | 337° |
| 2026-04-30 07:44 | 11.26531 | 122.87087 | 16528 ft | 377 kts | 337° |
| 2026-04-30 07:45 | 11.28923 | 122.85954 | 17098 ft | 381 kts | 337° |
| 2026-04-30 07:45 | 11.31336 | 122.84813 | 17647 ft | 384 kts | 338° |
| 2026-04-30 07:45 | 11.33852 | 122.83874 | 18172 ft | 386 kts | 345° |
| 2026-04-30 07:45 | 11.36386 | 122.83055 | 18642 ft | 389 kts | 345° |
| 2026-04-30 07:46 | 11.38976 | 122.82220 | 19144 ft | 392 kts | 345° |
| 2026-04-30 07:46 | 11.41588 | 122.81378 | 19632 ft | 395 kts | 345° |
| 2026-04-30 07:46 | 11.44217 | 122.80528 | 20127 ft | 397 kts | 345° |
| 2026-04-30 07:46 | 11.46864 | 122.79672 | 20628 ft | 400 kts | 345° |
| 2026-04-30 07:47 | 11.47764 | 122.79381 | 20796 ft | 401 kts | 344° |
| 2026-04-30 07:47 | 11.49828 | 122.78712 | 21181 ft | 403 kts | 344° |
| 2026-04-30 07:47 | 11.52508 | 122.77840 | 21672 ft | 406 kts | 344° |
| 2026-04-30 07:47 | 11.55132 | 122.76737 | 22149 ft | 411 kts | 332° |
| 2026-04-30 07:48 | 11.57480 | 122.75044 | 22639 ft | 417 kts | 319° |
| 2026-04-30 07:48 | 11.59389 | 122.72857 | 23131 ft | 421 kts | 305° |
| 2026-04-30 07:48 | 11.60797 | 122.70222 | 23586 ft | 425 kts | 292° |
| 2026-04-30 07:48 | 11.61594 | 122.67451 | 23970 ft | 427 kts | 283° |
| 2026-04-30 07:49 | 11.62275 | 122.64499 | 24381 ft | 429 kts | 283° |
| 2026-04-30 07:49 | 11.62961 | 122.61527 | 24745 ft | 431 kts | 283° |
| 2026-04-30 07:49 | 11.63649 | 122.58553 | 24863 ft | 430 kts | 283° |
| 2026-04-30 07:49 | 11.64323 | 122.55645 | 24894 ft | 414 kts | 283° |
| 2026-04-30 07:50 | 11.64976 | 122.52845 | 24897 ft | 408 kts | 283° |
| 2026-04-30 07:50 | 11.65631 | 122.50039 | 24895 ft | 406 kts | 283° |
| 2026-04-30 07:50 | 11.66286 | 122.47243 | 24895 ft | 405 kts | 283° |
| 2026-04-30 07:50 | 11.66940 | 122.44444 | 24895 ft | 405 kts | 283° |
| 2026-04-30 07:51 | 11.67675 | 122.41673 | 24897 ft | 405 kts | 290° |
| 2026-04-30 07:51 | 11.68870 | 122.39079 | 24896 ft | 404 kts | 302° |
| 2026-04-30 07:51 | 11.70540 | 122.36780 | 24897 ft | 403 kts | 314° |
| 2026-04-30 07:51 | 11.72603 | 122.34854 | 24897 ft | 402 kts | 323° |
| 2026-04-30 07:52 | 11.74794 | 122.33075 | 24896 ft | 402 kts | 323° |
| 2026-04-30 07:52 | 11.76988 | 122.31292 | 24895 ft | 402 kts | 322° |
| 2026-04-30 07:52 | 11.79174 | 122.29512 | 24891 ft | 402 kts | 322° |
| 2026-04-30 07:52 | 11.81361 | 122.27730 | 24889 ft | 402 kts | 322° |
| 2026-04-30 07:53 | 11.83552 | 122.25941 | 24886 ft | 402 kts | 322° |
| 2026-04-30 07:53 | 11.85734 | 122.24155 | 24885 ft | 402 kts | 322° |
| 2026-04-30 07:53 | 11.87918 | 122.22365 | 24881 ft | 402 kts | 322° |
| 2026-04-30 07:53 | 11.90072 | 122.20599 | 24879 ft | 402 kts | 322° |
| 2026-04-30 07:54 | 11.92253 | 122.18811 | 24880 ft | 402 kts | 322° |
| 2026-04-30 07:54 | 11.94437 | 122.17024 | 24875 ft | 402 kts | 322° |
| 2026-04-30 07:54 | 11.96624 | 122.15239 | 24878 ft | 402 kts | 322° |
| 2026-04-30 07:54 | 11.98811 | 122.13454 | 24878 ft | 402 kts | 322° |
| 2026-04-30 07:55 | 12.00995 | 122.11669 | 24879 ft | 402 kts | 322° |
| 2026-04-30 07:55 | 12.03178 | 122.09884 | 24880 ft | 401 kts | 322° |
| 2026-04-30 07:55 | 12.05360 | 122.08093 | 24878 ft | 401 kts | 322° |
| 2026-04-30 07:55 | 12.07535 | 122.06308 | 24878 ft | 401 kts | 322° |
| 2026-04-30 07:56 | 12.09688 | 122.04548 | 24877 ft | 401 kts | 322° |
| 2026-04-30 07:56 | 12.11874 | 122.02776 | 24875 ft | 401 kts | 322° |
| 2026-04-30 07:56 | 12.14069 | 122.01004 | 24878 ft | 406 kts | 322° |
| 2026-04-30 07:56 | 12.16313 | 121.99194 | 24828 ft | 412 kts | 322° |
| 2026-04-30 07:57 | 12.18559 | 121.97381 | 24382 ft | 410 kts | 322° |
| 2026-04-30 07:57 | 12.20793 | 121.95574 | 23920 ft | 408 kts | 322° |
| 2026-04-30 07:57 | 12.23011 | 121.93774 | 23464 ft | 406 kts | 322° |
| 2026-04-30 07:57 | 12.25215 | 121.91986 | 22942 ft | 403 kts | 322° |
| 2026-04-30 07:58 | 12.27406 | 121.90206 | 22433 ft | 401 kts | 322° |
| 2026-04-30 07:58 | 12.29584 | 121.88437 | 21958 ft | 398 kts | 322° |
| 2026-04-30 07:58 | 12.31741 | 121.86684 | 21487 ft | 395 kts | 322° |
| 2026-04-30 07:58 | 12.33895 | 121.84955 | 21026 ft | 392 kts | 326° |
| 2026-04-30 07:59 | 12.36261 | 121.83621 | 20584 ft | 386 kts | 340° |
| 2026-04-30 07:59 | 12.38833 | 121.82936 | 20139 ft | 380 kts | 355° |
| 2026-04-30 07:59 | 12.41455 | 121.82878 | 19690 ft | 376 kts | 4° |
| 2026-04-30 08:00 | 12.46654 | 121.83049 | 18840 ft | 371 kts | 4° |
| 2026-04-30 08:00 | 12.49228 | 121.83131 | 18430 ft | 369 kts | 4° |
| 2026-04-30 08:00 | 12.51758 | 121.83208 | 18013 ft | 366 kts | 4° |
| 2026-04-30 08:00 | 12.54300 | 121.83285 | 17558 ft | 364 kts | 4° |
| 2026-04-30 08:01 | 12.56824 | 121.83362 | 17116 ft | 361 kts | 4° |
| 2026-04-30 08:01 | 12.59330 | 121.83435 | 16687 ft | 359 kts | 4° |
| 2026-04-30 08:01 | 12.61821 | 121.83507 | 16264 ft | 357 kts | 4° |
| 2026-04-30 08:01 | 12.64292 | 121.83578 | 15859 ft | 354 kts | 4° |
| 2026-04-30 08:02 | 12.69191 | 121.83722 | 15067 ft | 350 kts | 4° |
| 2026-04-30 08:02 | 12.71622 | 121.83797 | 14675 ft | 348 kts | 4° |
| 2026-04-30 08:03 | 12.76407 | 121.83940 | 13902 ft | 343 kts | 4° |
| 2026-04-30 08:03 | 12.81150 | 121.84079 | 13053 ft | 337 kts | 3° |
| 2026-04-30 08:03 | 12.83481 | 121.84148 | 12309 ft | 334 kts | 3° |
| 2026-04-30 08:04 | 12.85794 | 121.84216 | 11576 ft | 331 kts | 3° |
| 2026-04-30 08:04 | 12.88092 | 121.84284 | 10866 ft | 328 kts | 3° |
| 2026-04-30 08:04 | 12.90343 | 121.84352 | 10470 ft | 315 kts | 3° |
| 2026-04-30 08:04 | 12.92503 | 121.84418 | 10022 ft | 307 kts | 3° |
| 2026-04-30 08:05 | 12.94629 | 121.84482 | 9380 ft | 304 kts | 3° |
| 2026-04-30 08:05 | 12.96711 | 121.84543 | 8939 ft | 294 kts | 3° |
| 2026-04-30 08:05 | 12.98721 | 121.84602 | 8530 ft | 284 kts | 4° |
| 2026-04-30 08:05 | 13.00662 | 121.84659 | 8147 ft | 273 kts | 4° |
| 2026-04-30 08:06 | 13.02530 | 121.84716 | 7760 ft | 264 kts | 4° |
| 2026-04-30 08:06 | 13.04337 | 121.84770 | 7391 ft | 256 kts | 4° |
| 2026-04-30 08:06 | 13.06084 | 121.84822 | 7025 ft | 247 kts | 4° |
| 2026-04-30 08:06 | 13.07778 | 121.84871 | 6661 ft | 240 kts | 5° |
| 2026-04-30 08:07 | 13.09431 | 121.84921 | 6307 ft | 237 kts | 5° |
| 2026-04-30 08:07 | 13.11085 | 121.84972 | 5934 ft | 238 kts | 5° |
| 2026-04-30 08:07 | 13.12745 | 121.85023 | 5561 ft | 239 kts | 5° |
| 2026-04-30 08:07 | 13.14410 | 121.85074 | 5186 ft | 240 kts | 5° |
| 2026-04-30 08:08 | 13.16080 | 121.85125 | 4815 ft | 240 kts | 5° |
| 2026-04-30 08:08 | 13.17758 | 121.85177 | 4429 ft | 242 kts | 4° |
| 2026-04-30 08:08 | 13.19419 | 121.85227 | 4045 ft | 242 kts | 4° |
| 2026-04-30 08:08 | 13.21100 | 121.85278 | 3652 ft | 240 kts | 4° |
| 2026-04-30 08:09 | 13.22742 | 121.85327 | 3272 ft | 232 kts | 4° |
| 2026-04-30 08:09 | 13.24330 | 121.85374 | 2898 ft | 225 kts | 4° |
| 2026-04-30 08:09 | 13.25873 | 121.85420 | 2525 ft | 218 kts | 3° |
| 2026-04-30 08:09 | 13.27333 | 121.85448 | 2169 ft | 203 kts | 356° |
| 2026-04-30 08:10 | 13.28665 | 121.85086 | 1869 ft | 192 kts | 342° |
| 2026-04-30 08:10 | 13.29880 | 121.84666 | 1527 ft | 176 kts | 343° |
| 2026-04-30 08:10 | 13.30996 | 121.84286 | 1241 ft | 164 kts | 342° |
| 2026-04-30 08:10 | 13.32044 | 121.83931 | 990 ft | 153 kts | 342° |
| 2026-04-30 08:11 | 13.33027 | 121.83599 | 718 ft | 145 kts | 341° |
| 2026-04-30 08:11 | 13.33971 | 121.83282 | 452 ft | 141 kts | 341° |
| 2026-04-30 08:11 | 13.34895 | 121.82968 | 191 ft | 139 kts | 340° |
| 2026-04-30 08:11 | 13.35802 | 121.82658 | 38 ft | 128 kts | 341° |
| 2026-04-30 08:12 | 13.36402 | 121.82452 | 38 ft | 48 kts | 342° |
| 2026-04-30 08:12 | 13.36516 | 121.82409 | 35 ft | 8 kts | 352° |
| 2026-04-30 08:12 | 13.36517 | 121.82419 | 35 ft | 1 kts | 139° |
| 2026-04-30 08:12 | 13.36436 | 121.82447 | 37 ft | 25 kts | 163° |
| 2026-04-30 08:13 | 13.36265 | 121.82502 | 39 ft | 26 kts | 162° |
| 2026-04-30 08:13 | 13.36086 | 121.82561 | 41 ft | 28 kts | 161° |
| 2026-04-30 08:13 | 13.35899 | 121.82629 | 39 ft | 29 kts | 169° |
| 2026-04-30 08:13 | 13.35808 | 121.82670 | 36 ft | 12 kts | 120° |
| 2026-04-30 08:14 | 13.35827 | 121.82725 | 38 ft | 6 kts | 10° |
| 2026-04-30 08:14 | 13.35851 | 121.82731 | 38 ft | 2 kts | 44° |
| 2026-04-30 08:14 | 13.35854 | 121.82741 | 38 ft | 1 kts | 75° |
| 2026-04-30 08:14 | 13.35855 | 121.82748 | 38 ft | 0 kts | 83° |